Time;durP1;ratioP1;P1;durP2;ratioP2;P2;SDS_P1;SDS_P2;PMS_P1;PMS_P2;Temp;Humidity;BMP_temperature;BMP_pressure;BME280_temperature;BME280_humidity;BME280_pressure;Samples;Min_cycle;Max_cycle;Signal;HPM_P1;HPM_P2
2022/04/04 00:02:21;;;;;;;5.28;3.25;;;3.90;99.90;;;;;;5055859;28;20101;-77
2022/04/04 00:04:46;;;;;;;6.15;2.83;;;3.90;99.90;;;;;;5057588;28;20156;-77
2022/04/04 00:07:12;;;;;;;6.47;2.83;;;3.90;99.90;;;;;;5055833;28;20130;-77
2022/04/04 00:09:38;;;;;;;5.60;2.63;;;3.90;99.90;;;;;;5059458;28;20147;-77
2022/04/04 00:12:04;;;;;;;6.13;3.65;;;4.00;99.90;;;;;;5059126;28;20527;-77
2022/04/04 00:14:30;;;;;;;8.73;3.30;;;4.00;99.90;;;;;;5062904;28;20135;-77
2022/04/04 00:16:56;;;;;;;16.30;5.63;;;4.00;99.90;;;;;;5060153;28;20153;-77
2022/04/04 00:19:24;;;;;;;11.77;3.53;;;4.00;99.90;;;;;;5057308;28;20041;-77
2022/04/04 00:21:50;;;;;;;8.90;4.38;;;4.10;99.90;;;;;;5057386;28;20041;-77
2022/04/04 00:24:16;;;;;;;8.25;4.30;;;4.10;99.90;;;;;;5056543;28;20075;-77
2022/04/04 00:26:41;;;;;;;12.63;4.30;;;4.20;99.90;;;;;;5052519;28;20041;-77
2022/04/04 00:29:07;;;;;;;11.82;5.68;;;4.30;99.90;;;;;;5057564;28;20052;-77
2022/04/04 00:31:32;;;;;;;10.70;4.95;;;4.30;99.90;;;;;;5054784;28;20041;-77
2022/04/04 00:33:58;;;;;;;9.80;5.57;;;4.30;99.90;;;;;;5060309;28;20051;-77
2022/04/04 00:36:24;;;;;;;10.60;6.40;;;4.40;99.90;;;;;;5058838;28;20039;-78
2022/04/04 00:38:49;;;;;;;13.77;6.93;;;4.40;99.90;;;;;;5057993;28;20044;-77
2022/04/04 00:41:15;;;;;;;11.02;6.80;;;4.50;99.90;;;;;;5059657;28;20068;-77
2022/04/04 00:43:42;;;;;;;15.27;6.78;;;4.50;99.90;;;;;;5058661;28;20040;-78
2022/04/04 00:46:08;;;;;;;10.80;6.35;;;4.50;99.90;;;;;;5058959;28;20338;-77
2022/04/04 00:48:34;;;;;;;11.95;6.95;;;4.50;99.90;;;;;;5058818;28;20325;-77
2022/04/04 00:51:01;;;;;;;13.00;7.25;;;4.50;99.90;;;;;;5056727;28;20083;-77
2022/04/04 00:53:27;;;;;;;15.00;7.82;;;4.60;99.90;;;;;;5058207;28;20102;-78
2022/04/04 00:55:54;;;;;;;13.32;7.63;;;4.60;99.90;;;;;;5061602;28;20407;-77
2022/04/04 00:58:19;;;;;;;12.27;8.13;;;4.60;99.90;;;;;;5060060;28;20094;-77
2022/04/04 01:00:48;;;;;;;12.80;6.90;;;4.60;99.90;;;;;;5055645;28;20040;-77
2022/04/04 01:03:14;;;;;;;12.75;7.03;;;4.70;99.90;;;;;;5049950;28;20090;-77
2022/04/04 01:05:40;;;;;;;17.40;7.97;;;4.70;99.90;;;;;;5055015;28;20504;-78
2022/04/04 01:08:05;;;;;;;17.42;7.82;;;4.70;99.90;;;;;;5058612;28;20055;-76
2022/04/04 01:10:31;;;;;;;12.25;7.38;;;4.70;99.90;;;;;;5059326;28;20057;-76
2022/04/04 01:12:57;;;;;;;14.80;7.03;;;4.70;99.90;;;;;;5059096;28;20600;-77
2022/04/04 01:15:26;;;;;;;12.35;7.47;;;4.80;99.90;;;;;;5057094;28;20578;-77
2022/04/04 01:17:52;;;;;;;15.85;8.73;;;4.80;99.90;;;;;;5059642;28;20424;-77
2022/04/04 01:20:18;;;;;;;19.15;9.02;;;4.80;99.90;;;;;;5059031;28;20054;-76
2022/04/04 01:22:48;;;;;;;17.17;8.45;;;4.80;99.90;;;;;;5057356;28;20052;-77
2022/04/04 01:25:25;;;;;;;14.43;9.27;;;4.80;99.90;;;;;;5055611;28;20408;-77
2022/04/04 01:27:52;;;;;;;15.90;7.15;;;4.90;99.90;;;;;;5058523;28;20412;-77
2022/04/04 01:30:18;;;;;;;17.50;9.73;;;4.90;99.90;;;;;;5055381;28;20484;-77
2022/04/04 01:32:44;;;;;;;21.75;9.93;;;4.90;99.90;;;;;;5054541;28;20059;-77
2022/04/04 01:35:10;;;;;;;17.23;10.13;;;4.90;99.90;;;;;;5058230;28;20520;-77
2022/04/04 01:37:37;;;;;;;18.40;10.48;;;5.00;99.90;;;;;;5058016;28;20118;-77
2022/04/04 01:40:04;;;;;;;19.85;10.40;;;5.00;99.90;;;;;;5052933;28;20354;-77
2022/04/04 01:42:31;;;;;;;16.33;9.35;;;5.00;99.90;;;;;;5055810;28;20037;-77
2022/04/04 01:44:57;;;;;;;13.90;8.43;;;5.00;99.90;;;;;;5056630;28;20037;-78
2022/04/04 01:47:23;;;;;;;21.23;10.93;;;5.00;99.90;;;;;;5055467;28;20491;-77
2022/04/04 01:49:48;;;;;;;17.13;10.73;;;5.10;99.90;;;;;;5057393;28;20040;-77
2022/04/04 01:52:14;;;;;;;20.33;11.60;;;5.10;99.90;;;;;;5056173;28;20404;-78
2022/04/04 01:54:40;;;;;;;16.05;9.68;;;5.10;99.90;;;;;;5058855;28;20385;-77
2022/04/04 01:57:06;;;;;;;12.95;8.40;;;5.10;99.90;;;;;;5057553;28;20067;-76
2022/04/04 01:59:31;;;;;;;15.65;8.43;;;5.20;99.90;;;;;;5055202;28;20203;-77
2022/04/04 02:01:57;;;;;;;19.33;8.73;;;5.20;99.90;;;;;;5056005;28;20280;-77
2022/04/04 02:04:23;;;;;;;17.38;10.15;;;5.30;99.90;;;;;;5053479;28;20190;-78
2022/04/04 02:06:49;;;;;;;14.60;8.23;;;5.30;99.90;;;;;;5057007;28;20040;-77
2022/04/04 02:09:15;;;;;;;15.15;8.90;;;5.30;99.90;;;;;;5055172;28;20067;-77
2022/04/04 02:11:40;;;;;;;15.05;9.45;;;5.30;99.90;;;;;;5057586;28;20119;-77
2022/04/04 02:14:06;;;;;;;12.75;8.98;;;5.30;99.90;;;;;;5054797;28;20048;-78
2022/04/04 02:16:32;;;;;;;20.63;10.25;;;5.30;99.90;;;;;;5054264;28;20098;-79
2022/04/04 02:18:57;;;;;;;20.33;10.25;;;5.30;99.90;;;;;;5058806;28;20091;-79
2022/04/04 02:21:23;;;;;;;20.00;10.60;;;5.30;99.90;;;;;;5060435;28;20557;-78
2022/04/04 02:23:49;;;;;;;14.57;9.05;;;5.30;99.90;;;;;;5061092;28;20040;-79
2022/04/04 02:26:14;;;;;;;16.58;10.00;;;5.40;99.90;;;;;;5055755;28;20048;-78
2022/04/04 02:28:40;;;;;;;17.95;10.35;;;5.40;99.90;;;;;;5055611;28;20079;-78
2022/04/04 02:31:06;;;;;;;20.38;10.95;;;5.40;99.90;;;;;;5056722;28;20071;-77
2022/04/04 02:33:31;;;;;;;16.45;10.55;;;5.40;99.90;;;;;;5056887;28;20063;-78
2022/04/04 02:35:57;;;;;;;20.77;9.73;;;5.40;99.90;;;;;;5052664;28;20815;-78
2022/04/04 02:38:25;;;;;;;14.38;9.27;;;5.40;99.90;;;;;;5057899;28;20045;-78
2022/04/04 02:40:52;;;;;;;18.35;11.27;;;5.50;99.90;;;;;;5064262;28;20484;-78
2022/04/04 02:43:18;;;;;;;15.85;9.60;;;5.50;99.90;;;;;;5058336;28;20040;-78
2022/04/04 02:45:44;;;;;;;15.10;9.88;;;5.50;99.90;;;;;;5060108;28;20059;-78
2022/04/04 02:48:10;;;;;;;20.92;9.77;;;5.60;99.90;;;;;;5060170;28;20040;-78
2022/04/04 02:50:36;;;;;;;10.98;6.38;;;5.60;99.90;;;;;;5060778;28;20049;-78
2022/04/04 02:53:02;;;;;;;19.83;11.38;;;5.60;99.90;;;;;;5057131;28;20516;-77
2022/04/04 02:58:14;;;;;;;19.42;9.75;;;5.60;99.90;;;;;;5057518;28;20037;-77
2022/04/04 03:00:40;;;;;;;17.02;8.75;;;5.60;99.90;;;;;;5058249;28;21147;-77
2022/04/04 03:03:06;;;;;;;18.52;9.90;;;5.60;99.90;;;;;;5058906;28;20032;-77
2022/04/04 03:05:32;;;;;;;22.67;11.25;;;5.60;99.90;;;;;;5054830;28;20045;-77
2022/04/04 03:07:57;;;;;;;20.75;12.43;;;5.60;99.90;;;;;;5058746;28;20131;-78
2022/04/04 03:10:23;;;;;;;14.98;9.52;;;5.60;99.90;;;;;;5053671;28;20044;-78
2022/04/04 03:12:50;;;;;;;22.42;11.50;;;5.70;99.90;;;;;;5055848;28;20049;-78
2022/04/04 03:15:22;;;;;;;18.27;7.63;;;5.60;99.90;;;;;;5056902;28;20080;-79
2022/04/04 03:17:50;;;;;;;15.88;9.88;;;5.70;99.90;;;;;;5058090;28;20127;-78
2022/04/04 03:20:16;;;;;;;18.40;9.32;;;5.70;99.90;;;;;;5059284;28;20052;-77
2022/04/04 03:22:45;;;;;;;18.63;11.07;;;5.70;99.90;;;;;;5061110;28;20048;-77
2022/04/04 03:25:12;;;;;;;13.90;9.10;;;5.70;99.90;;;;;;5059106;28;20040;-78
2022/04/04 03:27:39;;;;;;;15.98;7.97;;;5.70;99.90;;;;;;5058875;28;20437;-77
2022/04/04 03:30:07;;;;;;;16.02;7.57;;;5.70;99.90;;;;;;5058558;28;20045;-77
2022/04/04 03:32:33;;;;;;;12.52;5.57;;;5.80;99.90;;;;;;5060110;28;20037;-77
2022/04/04 03:34:59;;;;;;;14.60;6.47;;;5.80;99.90;;;;;;5052975;28;20071;-77
2022/04/04 03:37:26;;;;;;;16.80;6.47;;;5.80;99.90;;;;;;5059533;28;20041;-76
2022/04/04 03:39:53;;;;;;;11.05;5.90;;;5.80;99.90;;;;;;5057389;28;20344;-76
2022/04/04 03:42:19;;;;;;;11.63;5.90;;;5.80;99.90;;;;;;5059185;28;20041;-76
2022/04/04 03:44:45;;;;;;;17.15;7.57;;;5.80;99.90;;;;;;5058239;28;20049;-76
2022/04/04 03:47:11;;;;;;;14.38;7.00;;;5.80;99.90;;;;;;5060419;28;20052;-76
2022/04/04 03:49:37;;;;;;;9.88;5.10;;;5.70;99.90;;;;;;5059779;28;20550;-76
2022/04/04 03:52:04;;;;;;;14.40;6.00;;;5.80;99.90;;;;;;5056140;28;20535;-76
2022/04/04 03:54:30;;;;;;;11.20;5.72;;;5.70;99.90;;;;;;5065269;28;20059;-76
2022/04/04 03:56:57;;;;;;;14.57;7.13;;;5.70;99.90;;;;;;5058669;28;20040;-76
2022/04/04 03:59:23;;;;;;;18.83;8.30;;;5.70;99.90;;;;;;5060871;28;20130;-76
2022/04/04 04:01:48;;;;;;;14.13;7.03;;;5.70;99.90;;;;;;5059486;28;20040;-76
2022/04/04 04:04:14;;;;;;;23.67;8.70;;;5.70;99.90;;;;;;5058199;28;20084;-77
2022/04/04 04:06:40;;;;;;;14.95;6.28;;;5.70;99.90;;;;;;5060239;28;20045;-76
2022/04/04 04:09:05;;;;;;;16.45;7.70;;;5.70;99.90;;;;;;5059762;28;20041;-76
2022/04/04 04:11:32;;;;;;;11.05;6.65;;;5.60;99.90;;;;;;5064124;28;20055;-76
2022/04/04 04:14:00;;;;;;;11.43;6.75;;;5.60;99.90;;;;;;5059945;28;20708;-76
2022/04/04 04:16:26;;;;;;;13.57;8.35;;;5.50;99.90;;;;;;5054818;28;20511;-75
2022/04/04 04:18:52;;;;;;;15.82;8.55;;;5.60;99.90;;;;;;5058785;28;20439;-76
2022/04/04 04:21:18;;;;;;;14.45;8.75;;;5.50;99.90;;;;;;5053266;28;20045;-75
2022/04/04 04:23:44;;;;;;;19.70;8.82;;;5.50;99.90;;;;;;5057574;28;20124;-75
2022/04/04 04:26:13;;;;;;;19.67;10.20;;;5.50;99.90;;;;;;5054349;28;20041;-73
2022/04/04 04:28:40;;;;;;;12.65;6.78;;;5.50;99.90;;;;;;5058713;28;20040;-75
2022/04/04 04:31:06;;;;;;;18.55;8.82;;;5.50;99.90;;;;;;5055804;28;20063;-74
2022/04/04 04:33:32;;;;;;;15.90;7.65;;;5.50;99.90;;;;;;5061247;28;20245;-75
2022/04/04 04:36:00;;;;;;;11.10;6.00;;;5.50;99.90;;;;;;5056486;28;20618;-76
2022/04/04 04:38:26;;;;;;;15.98;7.68;;;5.50;99.90;;;;;;5060236;28;20089;-75
2022/04/04 04:40:52;;;;;;;14.93;9.25;;;5.50;99.90;;;;;;5056057;28;20037;-76
2022/04/04 04:43:18;;;;;;;9.20;5.97;;;5.50;99.90;;;;;;5055485;28;20049;-75
2022/04/04 04:45:43;;;;;;;7.90;5.50;;;5.50;99.90;;;;;;5061103;28;20423;-75
2022/04/04 04:48:10;;;;;;;15.50;7.65;;;5.50;99.90;;;;;;5059966;28;20079;-75
2022/04/04 04:50:36;;;;;;;12.93;7.60;;;5.50;99.90;;;;;;5057938;28;20079;-75
2022/04/04 04:53:02;;;;;;;15.25;6.57;;;5.50;99.90;;;;;;5058591;28;20052;-74
2022/04/04 04:55:32;;;;;;;10.15;6.07;;;5.50;99.90;;;;;;5057913;28;20040;-76
2022/04/04 04:57:58;;;;;;;11.60;5.20;;;5.50;99.90;;;;;;5056080;28;20036;-76
2022/04/04 05:00:27;;;;;;;8.30;5.10;;;5.50;99.90;;;;;;5056940;28;20052;-75
2022/04/04 05:05:39;;;;;;;11.80;5.20;;;5.40;99.90;;;;;;5035112;28;20047;-75
2022/04/04 05:08:06;;;;;;;10.45;4.82;;;5.40;99.90;;;;;;5052514;28;20504;-75
2022/04/04 05:10:32;;;;;;;8.82;4.80;;;5.30;99.90;;;;;;5058714;28;20041;-75
2022/04/04 05:12:57;;;;;;;8.77;4.45;;;5.30;99.90;;;;;;5060318;28;20040;-76
2022/04/04 05:15:23;;;;;;;7.20;3.92;;;5.30;99.90;;;;;;5061861;28;20070;-76
2022/04/04 05:17:50;;;;;;;7.28;2.85;;;5.20;99.90;;;;;;5064261;28;20056;-77
2022/04/04 05:20:16;;;;;;;9.70;3.13;;;5.20;99.90;;;;;;5056573;28;20499;-76
2022/04/04 05:22:42;;;;;;;12.60;4.53;;;5.10;99.90;;;;;;5060273;28;20079;-78
2022/04/04 05:25:08;;;;;;;10.32;2.78;;;5.10;99.90;;;;;;5061247;28;20404;-77
2022/04/04 05:27:33;;;;;;;6.63;2.38;;;5.00;99.90;;;;;;5058587;28;20090;-77
2022/04/04 05:30:00;;;;;;;5.68;2.30;;;5.00;99.90;;;;;;5056350;28;20033;-75
2022/04/04 05:32:26;;;;;;;8.93;3.28;;;5.00;99.90;;;;;;5065022;28;20075;-76
2022/04/04 05:34:52;;;;;;;5.97;1.75;;;5.00;99.90;;;;;;5064621;28;20564;-75
2022/04/04 05:37:17;;;;;;;6.95;1.55;;;4.90;99.90;;;;;;5058367;28;20045;-78
2022/04/04 05:39:43;;;;;;;5.65;1.75;;;4.90;99.90;;;;;;5059602;28;20519;-80
2022/04/04 05:42:09;;;;;;;15.77;3.03;;;4.90;99.90;;;;;;5057582;28;20036;-79
2022/04/04 05:44:34;;;;;;;5.50;3.25;;;4.80;99.90;;;;;;5053176;28;20068;-75
2022/04/04 05:47:00;;;;;;;4.75;1.60;;;4.90;99.90;;;;;;5053492;28;20550;-76
2022/04/04 05:49:26;;;;;;;4.65;1.98;;;4.90;99.90;;;;;;5055901;28;20066;-75
2022/04/04 05:51:51;;;;;;;7.13;2.67;;;4.90;99.90;;;;;;5059339;28;20071;-75
2022/04/04 05:54:17;;;;;;;7.60;2.08;;;4.90;99.90;;;;;;5060504;28;20140;-74
2022/04/04 05:56:46;;;;;;;4.45;1.90;;;4.90;99.90;;;;;;5058279;28;20503;-74
2022/04/04 05:59:13;;;;;;;4.93;2.10;;;5.00;99.90;;;;;;5051915;28;20076;-74
2022/04/04 06:01:39;;;;;;;7.10;2.83;;;5.00;99.90;;;;;;5054821;28;20048;-78
2022/04/04 06:04:05;;;;;;;6.05;2.40;;;5.10;99.90;;;;;;5055354;28;20051;-70
2022/04/04 06:06:40;;;;;;;8.15;3.00;;;5.10;99.90;;;;;;5055902;28;20041;-71
2022/04/04 06:09:06;;;;;;;5.25;2.63;;;5.10;99.90;;;;;;5055923;28;20488;-71
2022/04/04 06:11:32;;;;;;;6.45;2.97;;;5.10;99.90;;;;;;5060777;28;20051;-71
2022/04/04 06:13:58;;;;;;;9.38;5.25;;;5.10;99.90;;;;;;5058248;28;20044;-72
2022/04/04 06:16:25;;;;;;;13.07;5.60;;;5.10;99.90;;;;;;5063396;28;20061;-71
2022/04/04 06:18:51;;;;;;;14.82;5.30;;;5.20;99.90;;;;;;5061225;28;20057;-72
2022/04/04 06:21:17;;;;;;;10.75;3.88;;;5.20;99.90;;;;;;5053602;28;20063;-72
2022/04/04 06:23:43;;;;;;;13.38;4.88;;;5.20;99.90;;;;;;5055956;28;20575;-71
2022/04/04 06:26:08;;;;;;;10.68;4.03;;;5.20;99.90;;;;;;5052261;28;20055;-74
2022/04/04 06:28:35;;;;;;;12.77;5.35;;;5.30;99.90;;;;;;5056314;28;20146;-72
2022/04/04 06:31:03;;;;;;;10.25;5.30;;;5.20;99.90;;;;;;5067374;28;20052;-72
2022/04/04 06:33:30;;;;;;;8.95;3.47;;;5.30;99.90;;;;;;5061520;28;20538;-71
2022/04/04 06:35:55;;;;;;;13.75;5.43;;;5.40;99.90;;;;;;5062294;28;20048;-72
2022/04/04 06:38:22;;;;;;;10.18;4.78;;;5.40;99.90;;;;;;5055234;28;20798;-71
2022/04/04 06:40:49;;;;;;;10.02;5.55;;;5.50;99.90;;;;;;5060251;28;20071;-71
2022/04/04 06:43:17;;;;;;;11.30;4.18;;;5.50;99.90;;;;;;5060353;28;20040;-71
2022/04/04 06:45:44;;;;;;;12.85;6.50;;;5.60;99.90;;;;;;5074427;28;20991;-70
2022/04/04 06:48:11;;;;;;;13.70;5.50;;;5.60;99.90;;;;;;5059014;28;20048;-71
2022/04/04 06:50:37;;;;;;;17.60;7.28;;;5.70;99.90;;;;;;5058903;28;20130;-71
2022/04/04 06:53:02;;;;;;;18.50;7.55;;;5.70;99.90;;;;;;5060480;28;20516;-72
2022/04/04 06:55:28;;;;;;;18.08;8.60;;;5.70;99.90;;;;;;5062726;28;20079;-71
2022/04/04 06:57:55;;;;;;;16.55;8.88;;;5.80;99.90;;;;;;5062296;28;20052;-71
2022/04/04 07:00:23;;;;;;;16.02;7.88;;;5.80;99.90;;;;;;5058752;28;20041;-74
2022/04/04 07:02:49;;;;;;;10.60;5.63;;;5.80;99.90;;;;;;5059395;28;20048;-73
2022/04/04 07:05:15;;;;;;;13.20;5.20;;;5.80;99.90;;;;;;5062083;28;20049;-74
2022/04/04 07:07:41;;;;;;;18.30;6.38;;;5.80;99.90;;;;;;5063634;28;20072;-73
2022/04/04 07:10:08;;;;;;;17.00;8.88;;;5.80;99.90;;;;;;5061365;28;20483;-74
2022/04/04 07:12:38;;;;;;;16.85;6.63;;;5.80;99.90;;;;;;5062108;28;20151;-74
2022/04/04 07:15:04;;;;;;;14.18;6.65;;;5.80;99.90;;;;;;5059574;28;20044;-73
2022/04/04 07:17:30;;;;;;;21.60;9.50;;;5.80;99.90;;;;;;5054873;28;20508;-74
2022/04/04 07:19:55;;;;;;;17.85;7.95;;;5.90;99.90;;;;;;5057594;28;20056;-74
2022/04/04 07:22:21;;;;;;;19.52;9.63;;;5.80;99.90;;;;;;5060158;28;20056;-72
2022/04/04 07:24:47;;;;;;;17.38;8.90;;;5.90;99.90;;;;;;5062306;28;20087;-74
2022/04/04 07:27:12;;;;;;;16.55;9.32;;;5.90;99.90;;;;;;5056726;28;20052;-74
2022/04/04 07:29:38;;;;;;;15.35;9.27;;;5.90;99.90;;;;;;5059998;28;20044;-75
2022/04/04 07:32:05;;;;;;;20.05;7.82;;;5.90;99.90;;;;;;5055569;28;20064;-72
2022/04/04 07:34:30;;;;;;;19.02;9.65;;;5.90;99.90;;;;;;5060473;28;20089;-72
2022/04/04 07:36:56;;;;;;;10.43;5.85;;;5.90;99.90;;;;;;5061925;28;20040;-72
2022/04/04 07:39:22;;;;;;;11.88;5.95;;;5.90;99.90;;;;;;5062363;28;20078;-72
2022/04/04 07:41:48;;;;;;;14.55;4.88;;;6.00;99.90;;;;;;5057209;28;20384;-71
2022/04/04 07:44:14;;;;;;;15.82;7.57;;;6.00;99.90;;;;;;5053535;28;20055;-72
2022/04/04 07:46:39;;;;;;;8.75;4.55;;;6.00;99.90;;;;;;5055892;28;20036;-72
2022/04/04 07:49:05;;;;;;;11.80;4.97;;;6.00;99.90;;;;;;5055361;28;20389;-72
2022/04/04 07:51:31;;;;;;;15.32;7.95;;;6.00;99.90;;;;;;5062815;28;20051;-72
2022/04/04 07:53:57;;;;;;;10.95;6.15;;;6.00;99.90;;;;;;5055280;28;20083;-73
2022/04/04 07:56:23;;;;;;;10.65;5.07;;;6.00;99.90;;;;;;5059888;28;20125;-73
2022/04/04 07:58:48;;;;;;;12.80;7.30;;;6.00;99.90;;;;;;5055455;28;20465;-73
2022/04/04 08:01:14;;;;;;;11.20;4.78;;;6.10;99.90;;;;;;5059906;28;20048;-74
2022/04/04 08:03:40;;;;;;;14.27;6.25;;;6.10;99.90;;;;;;5058285;28;20530;-74
2022/04/04 08:06:05;;;;;;;14.88;7.75;;;6.10;99.90;;;;;;5063641;28;20041;-74
2022/04/04 08:08:31;;;;;;;8.57;4.90;;;6.10;99.90;;;;;;5057146;28;20480;-74
2022/04/04 08:10:57;;;;;;;14.68;6.28;;;6.10;99.90;;;;;;5061143;28;20110;-74
2022/04/04 08:13:24;;;;;;;14.23;7.05;;;6.10;99.90;;;;;;5060597;28;20523;-74
2022/04/04 08:15:50;;;;;;;13.20;6.70;;;6.10;99.90;;;;;;5052498;28;20036;-74
2022/04/04 08:18:16;;;;;;;18.27;7.40;;;6.10;99.90;;;;;;5061300;28;20044;-74
2022/04/04 08:20:42;;;;;;;14.23;4.43;;;6.10;99.90;;;;;;5063448;28;20057;-73
2022/04/04 08:23:08;;;;;;;12.98;5.18;;;6.20;99.90;;;;;;5053888;28;20397;-73
2022/04/04 08:25:33;;;;;;;8.30;3.95;;;6.20;99.90;;;;;;5057506;28;20064;-72
2022/04/04 08:28:00;;;;;;;14.55;6.65;;;6.30;99.90;;;;;;5059939;28;20063;-73
2022/04/04 08:30:25;;;;;;;8.95;3.80;;;6.30;99.90;;;;;;5059215;28;20088;-74
2022/04/04 08:32:51;;;;;;;12.05;4.82;;;6.30;99.90;;;;;;5058649;28;20045;-73
2022/04/04 08:35:18;;;;;;;9.50;4.82;;;6.30;99.90;;;;;;5059594;28;20059;-73
2022/04/04 08:37:45;;;;;;;10.38;3.13;;;6.30;99.90;;;;;;5057962;28;20048;-74
2022/04/04 08:40:14;;;;;;;7.30;3.25;;;6.40;99.90;;;;;;5054527;28;20040;-74
2022/04/04 08:42:40;;;;;;;11.40;3.88;;;6.40;99.90;;;;;;5057099;28;20044;-74
2022/04/04 08:45:06;;;;;;;7.05;3.78;;;6.40;99.90;;;;;;5053411;28;20090;-73
2022/04/04 08:47:33;;;;;;;9.13;3.80;;;6.40;99.90;;;;;;5055154;28;20098;-73
2022/04/04 08:50:00;;;;;;;14.55;3.72;;;6.40;99.90;;;;;;5059164;28;20048;-73
2022/04/04 08:52:29;;;;;;;7.65;3.80;;;6.50;99.90;;;;;;5057042;28;21021;-73
2022/04/04 08:54:55;;;;;;;10.00;3.90;;;6.50;99.90;;;;;;5057648;28;20044;-72
2022/04/04 08:57:21;;;;;;;6.13;2.58;;;6.50;99.90;;;;;;5060816;28;20106;-73
2022/04/04 08:59:46;;;;;;;9.85;3.17;;;6.60;99.90;;;;;;5056120;28;20055;-73
2022/04/04 09:02:13;;;;;;;5.18;2.42;;;6.60;99.90;;;;;;5054111;28;20044;-73
2022/04/04 09:04:40;;;;;;;5.95;2.88;;;6.60;99.90;;;;;;5061510;28;20036;-73
2022/04/04 09:07:08;;;;;;;8.68;3.55;;;6.70;99.90;;;;;;5057930;28;20092;-72
2022/04/04 09:09:45;;;;;;;10.48;3.22;;;6.70;99.90;;;;;;5062263;28;20484;-73
2022/04/04 09:12:13;;;;;;;10.13;3.47;;;6.70;99.90;;;;;;5059473;28;20443;-72
2022/04/04 09:14:57;;;;;;;7.32;4.00;;;6.80;99.90;;;;;;5056514;28;20120;-72
2022/04/04 09:17:31;;;;;;;7.90;3.20;;;6.70;99.90;;;;;;5052969;28;20040;-74
2022/04/04 09:19:58;;;;;;;6.38;2.67;;;6.80;99.90;;;;;;5060617;28;20040;-73
2022/04/04 09:22:25;;;;;;;8.20;3.38;;;6.80;99.90;;;;;;5057325;28;20387;-72
2022/04/04 09:24:50;;;;;;;5.82;2.38;;;6.90;99.90;;;;;;5054876;28;20045;-72
2022/04/04 09:27:22;;;;;;;8.30;2.78;;;6.90;99.90;;;;;;5049239;28;20155;-71
2022/04/04 09:29:58;;;;;;;6.60;2.20;;;7.00;99.90;;;;;;5056569;28;20135;-71
2022/04/04 09:32:44;;;;;;;6.80;1.85;;;7.00;99.90;;;;;;5037044;28;20044;-71
2022/04/04 09:35:15;;;;;;;10.02;2.80;;;7.00;99.90;;;;;;5057564;28;20041;-72
2022/04/04 09:37:44;;;;;;;8.75;2.20;;;7.00;99.90;;;;;;5063779;28;20461;-72
2022/04/04 09:40:15;;;;;;;12.85;4.00;;;7.00;99.90;;;;;;5054014;28;20070;-72
2022/04/04 09:42:43;;;;;;;11.27;3.45;;;7.00;99.90;;;;;;5050964;28;20502;-72
2022/04/04 09:45:13;;;;;;;9.65;3.45;;;7.00;99.90;;;;;;5059422;28;20436;-71
2022/04/04 09:47:57;;;;;;;10.70;3.47;;;7.00;99.90;;;;;;5056634;28;20045;-71
2022/04/04 09:50:43;;;;;;;8.35;2.95;;;7.00;99.90;;;;;;5078341;28;20045;-71
2022/04/04 09:53:23;;;;;;;11.73;3.22;;;7.00;99.90;;;;;;5060816;28;20516;-73
2022/04/04 09:55:55;;;;;;;8.52;3.25;;;7.00;99.90;;;;;;5059490;28;20395;-71
2022/04/04 09:58:25;;;;;;;14.50;4.03;;;7.10;99.90;;;;;;5060731;28;20048;-71
2022/04/04 10:00:51;;;;;;;10.02;2.78;;;7.10;99.90;;;;;;5060702;28;20066;-72
2022/04/04 10:03:18;;;;;;;6.38;2.28;;;7.10;99.90;;;;;;5056951;28;20053;-71
2022/04/04 10:05:47;;;;;;;6.20;2.28;;;7.10;99.90;;;;;;5058464;28;20045;-70
2022/04/04 10:08:15;;;;;;;13.18;3.70;;;7.10;99.90;;;;;;5059698;28;20075;-71
2022/04/04 10:10:42;;;;;;;7.80;2.40;;;7.20;99.90;;;;;;5060868;28;20041;-71
2022/04/04 10:13:10;;;;;;;2.80;1.30;;;7.10;99.90;;;;;;5057422;28;20725;-72
2022/04/04 10:15:38;;;;;;;4.85;1.75;;;7.10;99.90;;;;;;5060295;28;20044;-71
2022/04/04 10:18:06;;;;;;;6.55;2.15;;;7.20;99.90;;;;;;5055283;28;20127;-71
2022/04/04 10:20:32;;;;;;;6.68;2.33;;;7.20;99.90;;;;;;5065597;28;20098;-72
2022/04/04 10:22:59;;;;;;;5.60;1.80;;;7.30;99.90;;;;;;5059720;28;20122;-72
2022/04/04 10:25:29;;;;;;;6.32;1.60;;;7.30;99.90;;;;;;5060344;28;20037;-73
2022/04/04 10:27:55;;;;;;;6.38;1.90;;;7.20;99.90;;;;;;5058299;28;20048;-74
2022/04/04 10:30:34;;;;;;;5.95;2.08;;;7.30;99.90;;;;;;5059221;28;20053;-74
2022/04/04 10:33:01;;;;;;;10.32;2.28;;;7.30;99.90;;;;;;5059829;28;20045;-73
2022/04/04 10:35:30;;;;;;;8.75;3.10;;;7.30;99.90;;;;;;5060539;28;20064;-73
2022/04/04 10:38:03;;;;;;;7.28;2.88;;;7.30;99.90;;;;;;5058016;28;20048;-75
2022/04/04 10:40:30;;;;;;;;;;;7.30;99.90;;;;;;5060180;28;20075;-74
2022/04/04 10:43:09;;;;;;;7.53;3.15;;;7.30;99.90;;;;;;5061702;28;19920;-74
2022/04/04 10:45:56;;;;;;;2.92;1.30;;;7.40;99.90;;;;;;5044352;28;20127;-75
2022/04/04 10:48:31;;;;;;;4.32;2.08;;;7.30;99.90;;;;;;5060509;28;20518;-73
2022/04/04 10:51:11;;;;;;;5.80;2.45;;;7.40;99.90;;;;;;5060542;28;20037;-73
2022/04/04 10:54:04;;;;;;;5.38;2.55;;;7.40;99.90;;;;;;5056298;28;20056;-73
2022/04/04 10:56:33;;;;;;;3.53;1.48;;;7.40;99.90;;;;;;5059771;28;20033;-74
2022/04/04 10:59:23;;;;;;;4.10;1.88;;;7.50;99.90;;;;;;5060245;28;20051;-73
2022/04/04 11:01:55;;;;;;;4.25;1.65;;;7.50;99.90;;;;;;5059765;28;20123;-71
2022/04/04 11:04:31;;;;;;;5.38;2.38;;;7.50;99.90;;;;;;5054882;28;20102;-72
2022/04/04 11:10:38;;;;;;;6.32;2.08;;;7.60;99.90;;;;;;5059560;28;20033;-73
2022/04/04 11:13:59;;;;;;;;;;;;;;;;;;;;;
2022/04/04 11:16:19;;;;;;;7.07;2.42;;;7.70;99.90;;;;;;5048109;28;20063;-75
2022/04/04 11:18:52;;;;;;;4.18;1.90;;;7.70;99.90;;;;;;5022481;28;20622;-74
2022/04/04 11:22:00;;;;;;;3.78;1.70;;;7.70;99.90;;;;;;5056695;28;20495;-74
2022/04/04 11:27:40;;;;;;;3.35;1.83;;;7.80;99.90;;;;;;5053140;28;20044;-72
2022/04/04 11:30:18;;;;;;;5.93;2.55;;;7.90;99.90;;;;;;5064875;28;20129;-73
2022/04/04 11:32:46;;;;;;;3.95;1.92;;;7.90;99.90;;;;;;5060666;28;20063;-72
2022/04/04 11:35:22;;;;;;;4.03;1.75;;;8.00;99.90;;;;;;5056184;28;20395;-73
2022/04/04 11:38:07;;;;;;;4.70;2.33;;;8.00;99.90;;;;;;5061790;28;20115;-72
2022/04/04 11:40:53;;;;;;;7.20;3.70;;;8.00;99.90;;;;;;5061392;28;20402;-71
2022/04/04 11:43:21;;;;;;;7.20;3.70;;;8.00;99.90;;;;;;5056995;28;20532;-74
2022/04/04 11:46:08;;;;;;;9.95;3.97;;;8.10;99.90;;;;;;5058356;28;20407;-74
2022/04/04 11:48:39;;;;;;;9.55;3.63;;;8.10;99.90;;;;;;5020386;28;20049;-73
2022/04/04 11:51:07;;;;;;;4.75;1.98;;;8.10;99.90;;;;;;5059732;28;20049;-72
2022/04/04 11:53:38;;;;;;;11.02;5.22;;;8.00;99.90;;;;;;5058117;28;20094;-72
2022/04/04 11:56:10;;;;;;;8.52;3.78;;;8.10;99.90;;;;;;5058775;28;20412;-72
2022/04/04 11:58:54;;;;;;;12.90;4.18;;;8.10;99.90;;;;;;5057496;28;20075;-73
2022/04/04 12:01:26;;;;;;;9.10;3.97;;;8.10;99.90;;;;;;5055318;28;20033;-73
2022/04/04 12:03:52;;;;;;;10.35;4.40;;;8.10;99.90;;;;;;5057607;28;20552;-72
2022/04/04 12:06:20;;;;;;;9.38;3.42;;;8.10;99.90;;;;;;5055598;28;20052;-71
2022/04/04 12:08:49;;;;;;;17.02;4.90;;;8.10;99.90;;;;;;5060875;28;20041;-72
2022/04/04 12:11:28;;;;;;;7.03;3.03;;;8.20;99.90;;;;;;5059958;28;20059;-72
2022/04/04 12:13:57;;;;;;;14.25;3.17;;;8.30;99.90;;;;;;5059284;28;20044;-72
2022/04/04 12:16:29;;;;;;;12.68;5.38;;;8.20;99.90;;;;;;5055995;28;20071;-74
2022/04/04 12:18:57;;;;;;;13.90;4.15;;;8.30;99.90;;;;;;5054416;28;20522;-72
2022/04/04 12:21:23;;;;;;;10.02;3.85;;;8.40;99.90;;;;;;5057710;28;20036;-73
2022/04/04 12:26:36;;;;;;;6.72;3.08;;;8.40;99.90;;;;;;5055626;28;20487;-72
2022/04/04 12:29:08;;;;;;;9.63;4.60;;;8.50;99.90;;;;;;5054739;28;20050;-72
2022/04/04 12:31:34;;;;;;;12.10;3.47;;;8.50;99.90;;;;;;5056845;28;20051;-72
2022/04/04 12:34:03;;;;;;;9.60;4.95;;;8.50;99.90;;;;;;5057533;28;20393;-72
2022/04/04 12:36:38;;;;;;;9.75;4.40;;;8.60;99.90;;;;;;5054810;28;20400;-71
2022/04/04 12:39:08;;;;;;;16.02;6.20;;;8.70;99.90;;;;;;5059030;28;20041;-72
2022/04/04 12:41:45;;;;;;;16.67;5.88;;;8.70;99.90;;;;;;5059021;28;20047;-72
2022/04/04 12:44:11;;;;;;;17.08;6.53;;;8.70;99.90;;;;;;5056799;28;20041;-73
2022/04/04 12:46:37;;;;;;;16.25;6.30;;;8.70;99.90;;;;;;5059214;28;20122;-72
2022/04/04 12:49:13;;;;;;;15.38;5.35;;;8.80;99.90;;;;;;5058504;28;20520;-72
2022/04/04 12:51:49;;;;;;;16.17;6.00;;;8.90;99.90;;;;;;5061544;28;20062;-72
2022/04/04 12:54:26;;;;;;;19.85;7.55;;;8.90;99.90;;;;;;5051880;28;20048;-72
2022/04/04 12:56:52;;;;;;;21.63;6.13;;;8.90;99.90;;;;;;5061479;28;20040;-72
2022/04/04 12:59:18;;;;;;;18.13;5.90;;;8.90;99.90;;;;;;5054529;28;20364;-73
2022/04/04 13:02:00;;;;;;;16.25;5.60;;;9.00;99.90;;;;;;5058266;28;20131;-72
2022/04/04 13:04:25;;;;;;;21.08;7.45;;;8.90;99.90;;;;;;5057419;28;20098;-72
2022/04/04 13:06:51;;;;;;;17.02;5.72;;;9.10;99.90;;;;;;5058104;28;20044;-72
2022/04/04 13:09:24;;;;;;;17.67;6.13;;;9.00;99.90;;;;;;5057026;28;20111;-72
2022/04/04 13:11:50;;;;;;;;;;;9.00;99.90;;;;;;5057843;28;20536;-72